createdAt,value
2023-02-02T00:00:19.220Z,5.10
2023-02-02T00:00:51.368Z,5.10
2023-02-02T00:01:25.238Z,5.10
2023-02-02T00:02:00.969Z,5.10
2023-02-02T00:02:32.893Z,5.10
2023-02-02T00:03:05.715Z,5.20
2023-02-02T00:03:38.111Z,5.20
2023-02-02T00:04:17.667Z,5.20
2023-02-02T00:04:49.475Z,5.20
2023-02-02T00:05:21.447Z,5.20
2023-02-02T00:05:55.394Z,5.20
2023-02-02T00:06:29.207Z,5.20
2023-02-02T00:07:02.859Z,5.10
2023-02-02T00:07:34.705Z,5.10
2023-02-02T00:08:06.535Z,5.20
2023-02-02T00:08:39.229Z,5.10
2023-02-02T00:09:13.697Z,5.20
2023-02-02T00:09:45.526Z,5.20
2023-02-02T00:10:17.854Z,5.20
2023-02-02T00:10:50.766Z,5.20
2023-02-02T00:11:24.628Z,5.20
2023-02-02T00:11:58.311Z,5.20
2023-02-02T00:12:30.202Z,5.20
2023-02-02T00:13:02.041Z,5.20
2023-02-02T00:13:35.041Z,5.20
2023-02-02T00:14:07.830Z,5.20
2023-02-02T00:14:39.713Z,5.20
2023-02-02T00:15:12.709Z,5.20
2023-02-02T00:15:44.739Z,5.20
2023-02-02T00:16:39.014Z,5.20
2023-02-02T00:17:11.618Z,5.10
2023-02-02T00:17:44.509Z,5.10
2023-02-02T00:18:16.374Z,5.10
2023-02-02T00:18:49.273Z,5.10
2023-02-02T00:19:26.199Z,5.10
2023-02-02T00:19:58.084Z,5.10
2023-02-02T00:20:30.061Z,5.10
2023-02-02T00:21:02.825Z,5.10
2023-02-02T00:21:35.199Z,5.10
2023-02-02T00:22:08.054Z,5.10
2023-02-02T00:22:39.912Z,5.10
2023-02-02T00:23:11.725Z,5.10
2023-02-02T00:23:43.566Z,5.10
2023-02-02T00:24:18.971Z,5.10
2023-02-02T00:24:50.857Z,5.10
2023-02-02T00:25:23.394Z,5.10
2023-02-02T00:25:56.409Z,5.10
2023-02-02T00:26:29.912Z,5.10
2023-02-02T00:27:01.728Z,5.10
2023-02-02T00:27:34.581Z,5.00
2023-02-02T00:28:06.434Z,5.00
2023-02-02T00:28:38.300Z,5.10
2023-02-02T00:29:16.331Z,5.00
2023-02-02T00:29:49.406Z,5.00
2023-02-02T00:30:21.496Z,5.10
2023-02-02T00:30:54.419Z,5.00
2023-02-02T00:31:26.272Z,5.00
2023-02-02T00:31:58.412Z,5.00
2023-02-02T00:32:31.281Z,5.00
2023-02-02T00:33:03.160Z,5.00
2023-02-02T00:33:35.124Z,5.00
2023-02-02T00:34:07.962Z,5.00
2023-02-02T00:34:39.812Z,5.00
2023-02-02T00:35:11.661Z,5.00
2023-02-02T00:35:44.483Z,5.00
2023-02-02T00:36:16.794Z,5.00
2023-02-02T00:36:50.094Z,5.00
2023-02-02T00:37:22.923Z,5.00
2023-02-02T00:37:54.779Z,5.10
2023-02-02T00:38:26.716Z,5.10
2023-02-02T00:38:59.570Z,5.10
2023-02-02T00:39:31.492Z,5.10
2023-02-02T00:40:03.634Z,5.10
2023-02-02T00:40:35.481Z,5.10
2023-02-02T00:41:08.367Z,5.10
2023-02-02T00:41:41.502Z,5.10
2023-02-02T00:42:13.413Z,5.10
2023-02-02T00:42:50.244Z,5.00
2023-02-02T00:43:22.260Z,5.00
2023-02-02T00:44:09.018Z,5.00
2023-02-02T00:44:59.257Z,5.00
2023-02-02T00:45:31.478Z,5.00
2023-02-02T00:46:04.769Z,5.00
2023-02-02T00:46:40.121Z,5.00
2023-02-02T00:47:12.125Z,5.00
2023-02-02T00:47:45.605Z,5.00
2023-02-02T00:48:18.426Z,4.90
2023-02-02T00:48:51.542Z,4.90
2023-02-02T00:49:23.622Z,4.90
2023-02-02T00:49:56.415Z,4.90
2023-02-02T00:50:28.712Z,4.90
2023-02-02T00:51:02.132Z,4.90
2023-02-02T00:51:35.262Z,4.90
2023-02-02T00:52:07.104Z,4.90
2023-02-02T00:52:39.093Z,4.90
2023-02-02T00:53:11.965Z,4.90
2023-02-02T00:53:43.871Z,4.90
2023-02-02T00:54:16.323Z,4.90
2023-02-02T00:54:49.189Z,4.90
2023-02-02T00:55:22.242Z,4.90
2023-02-02T00:55:54.425Z,4.90
2023-02-02T00:56:27.295Z,4.90
2023-02-02T00:57:00.473Z,4.90
2023-02-02T00:57:32.336Z,4.90
2023-02-02T00:58:05.092Z,4.90
2023-02-02T00:58:36.899Z,4.90
2023-02-02T00:59:08.897Z,4.90
2023-02-02T00:59:41.797Z,4.90
2023-02-02T01:00:16.205Z,4.90
2023-02-02T01:00:48.132Z,4.80
2023-02-02T01:01:22.054Z,4.90
2023-02-02T01:01:53.976Z,4.90
2023-02-02T01:02:25.890Z,4.80
2023-02-02T01:03:04.194Z,4.80
2023-02-02T01:03:35.996Z,4.80
2023-02-02T01:04:08.170Z,4.80
2023-02-02T01:04:41.376Z,4.80
2023-02-02T01:05:13.687Z,4.80
2023-02-02T01:05:46.608Z,4.80
2023-02-02T01:06:18.833Z,4.80
2023-02-02T01:06:50.678Z,4.80
2023-02-02T01:07:23.494Z,4.80
2023-02-02T01:07:55.345Z,4.70
2023-02-02T01:08:27.189Z,4.80
2023-02-02T01:09:00.069Z,4.70
2023-02-02T01:09:31.998Z,4.70
2023-02-02T01:10:04.384Z,4.70
2023-02-02T01:10:37.393Z,4.80
2023-02-02T01:11:09.986Z,4.70
2023-02-02T01:11:41.931Z,4.70
2023-02-02T01:12:16.082Z,4.70
2023-02-02T01:12:47.989Z,4.60
2023-02-02T01:13:19.797Z,4.60
2023-02-02T01:13:52.805Z,4.60
2023-02-02T01:14:24.715Z,4.60
2023-02-02T01:14:56.735Z,4.60
2023-02-02T01:15:30.423Z,4.60
2023-02-02T01:16:04.472Z,4.60
2023-02-02T01:16:36.430Z,4.60
2023-02-02T01:17:08.317Z,4.60
2023-02-02T01:17:41.392Z,4.60
2023-02-02T01:18:13.238Z,4.50
2023-02-02T01:18:45.075Z,4.60
2023-02-02T01:19:18.066Z,4.50
2023-02-02T01:19:49.885Z,4.50
2023-02-02T01:20:21.938Z,4.60
2023-02-02T01:20:58.409Z,4.60
2023-02-02T01:21:30.309Z,4.60
2023-02-02T01:22:03.498Z,4.60
2023-02-02T01:22:38.442Z,4.60
2023-02-02T01:23:10.433Z,4.60
2023-02-02T01:23:42.242Z,4.60
2023-02-02T01:24:15.052Z,4.60
2023-02-02T01:24:46.849Z,4.50
2023-02-02T01:25:18.917Z,4.60
2023-02-02T01:25:54.935Z,4.50
2023-02-02T01:26:26.801Z,4.60
2023-02-02T01:26:58.641Z,4.50
2023-02-02T01:27:32.927Z,4.50
2023-02-02T01:28:05.180Z,4.50
2023-02-02T01:28:37.449Z,4.60
2023-02-02T01:29:10.325Z,4.60
2023-02-02T01:29:42.163Z,4.60
2023-02-02T01:30:14.155Z,4.60
2023-02-02T01:30:47.094Z,4.70
2023-02-02T01:31:20.168Z,4.60
2023-02-02T01:31:53.149Z,4.50
2023-02-02T01:32:25.175Z,4.50
2023-02-02T01:32:57.034Z,4.50
2023-02-02T01:33:29.851Z,4.60
2023-02-02T01:34:01.686Z,4.50
2023-02-02T01:34:33.792Z,4.60
2023-02-02T01:35:07.489Z,4.60
2023-02-02T01:35:45.509Z,4.60
2023-02-02T01:36:19.052Z,4.60
2023-02-02T01:36:51.899Z,4.60
2023-02-02T01:37:23.802Z,4.60
2023-02-02T01:37:55.660Z,4.60
2023-02-02T01:38:27.508Z,4.60
2023-02-02T01:39:00.396Z,4.60
2023-02-02T01:39:34.218Z,4.60
2023-02-02T01:40:08.500Z,4.60
2023-02-02T01:40:45.315Z,4.60
2023-02-02T01:41:20.097Z,4.60
2023-02-02T01:41:53.026Z,4.60
2023-02-02T01:42:24.932Z,4.60
2023-02-02T01:42:58.096Z,4.60
2023-02-02T01:43:32.251Z,4.60
2023-02-02T01:44:06.251Z,4.60
2023-02-02T01:45:14.145Z,4.60
2023-02-02T01:45:46.031Z,4.60
2023-02-02T01:46:19.528Z,4.60
2023-02-02T01:46:52.341Z,4.70
2023-02-02T01:47:27.893Z,4.70
2023-02-02T01:48:00.627Z,4.70
2023-02-02T01:48:34.962Z,4.70
2023-02-02T01:49:11.279Z,4.70
2023-02-02T01:49:43.256Z,4.70
2023-02-02T01:50:17.041Z,4.70
2023-02-02T01:50:54.290Z,4.70
2023-02-02T01:51:30.811Z,4.70
2023-02-02T01:52:02.739Z,4.70
2023-02-02T01:52:37.129Z,4.70
2023-02-02T01:53:09.584Z,4.70
2023-02-02T01:53:43.654Z,4.80
2023-02-02T01:54:24.275Z,4.70
2023-02-02T01:55:00.318Z,4.70
2023-02-02T01:55:34.641Z,4.70
2023-02-02T01:56:09.472Z,4.80
2023-02-02T01:56:45.679Z,4.80
2023-02-02T01:57:24.719Z,4.70
2023-02-02T01:58:02.015Z,4.70
2023-02-02T01:58:36.642Z,4.70
2023-02-02T01:59:09.763Z,4.70
2023-02-02T01:59:44.477Z,4.80
2023-02-02T02:00:18.682Z,4.70
2023-02-02T02:00:51.273Z,4.80
2023-02-02T02:01:24.157Z,4.80
2023-02-02T02:01:56.351Z,4.80
2023-02-02T02:02:29.921Z,4.80
2023-02-02T02:03:07.249Z,4.80
2023-02-02T02:03:39.080Z,4.80
2023-02-02T02:04:11.650Z,4.70
2023-02-02T02:04:44.711Z,4.70
2023-02-02T02:05:21.457Z,4.70
2023-02-02T02:05:57.620Z,4.80
2023-02-02T02:06:30.554Z,4.80
2023-02-02T02:07:04.725Z,4.80
2023-02-02T02:07:37.689Z,4.80
2023-02-02T02:08:18.143Z,4.80
2023-02-02T02:08:54.012Z,4.80
2023-02-02T02:09:25.864Z,4.80
2023-02-02T02:09:58.747Z,4.80
2023-02-02T02:10:30.620Z,4.80
2023-02-02T02:11:02.898Z,4.80
2023-02-02T02:11:37.055Z,4.80
2023-02-02T02:12:13.372Z,4.80
2023-02-02T02:12:46.971Z,4.80
2023-02-02T02:13:43.493Z,4.80
2023-02-02T02:14:35.077Z,4.80
2023-02-02T02:15:27.257Z,4.80
2023-02-02T02:16:19.805Z,4.80
2023-02-02T02:17:01.906Z,4.80
2023-02-02T02:17:58.870Z,4.80
2023-02-02T02:18:41.001Z,4.80
2023-02-02T02:19:28.054Z,4.80
2023-02-02T02:20:43.173Z,4.80
2023-02-02T02:21:58.628Z,4.80
2023-02-02T02:23:07.119Z,4.80
2023-02-02T02:24:25.514Z,4.80
2023-02-02T02:25:41.717Z,4.80
2023-02-02T02:26:35.627Z,4.80
2023-02-02T02:27:44.629Z,4.80
2023-02-02T02:28:38.922Z,4.80
2023-02-02T02:29:26.960Z,4.80
2023-02-02T02:30:35.806Z,4.80
2023-02-02T02:31:47.414Z,4.80
2023-02-02T02:32:32.089Z,4.80
2023-02-02T02:33:07.052Z,4.80
2023-02-02T02:33:46.732Z,4.80
2023-02-02T02:34:24.360Z,4.80
2023-02-02T02:35:02.120Z,4.80
2023-02-02T02:35:41.442Z,4.80
2023-02-02T02:36:20.615Z,4.80
2023-02-02T02:37:00.324Z,4.80
2023-02-02T02:37:39.045Z,4.80
2023-02-02T02:38:20.163Z,4.70
2023-02-02T02:38:59.097Z,4.80
2023-02-02T02:39:36.789Z,4.80
2023-02-02T02:40:17.582Z,4.80
2023-02-02T02:40:55.745Z,4.80
2023-02-02T02:41:32.102Z,4.80
2023-02-02T02:42:10.528Z,4.80
2023-02-02T02:42:46.650Z,4.80
2023-02-02T02:43:23.641Z,4.90
2023-02-02T02:43:59.945Z,4.80
2023-02-02T02:44:33.441Z,4.80
2023-02-02T02:45:07.618Z,4.80
2023-02-02T02:45:40.862Z,4.90
2023-02-02T02:46:13.453Z,4.80
2023-02-02T02:46:48.253Z,4.80
2023-02-02T02:47:20.859Z,4.80
2023-02-02T02:47:54.585Z,4.80
2023-02-02T02:48:26.501Z,4.80
2023-02-02T02:48:59.470Z,4.80
2023-02-02T02:49:32.300Z,4.80
2023-02-02T02:50:05.289Z,4.80
2023-02-02T02:50:37.353Z,4.80
2023-02-02T02:51:40.866Z,4.80
2023-02-02T02:52:13.002Z,4.80
2023-02-02T02:52:47.414Z,4.90
2023-02-02T02:53:22.286Z,4.70
2023-02-02T02:53:54.401Z,4.80
2023-02-02T02:54:32.053Z,4.80
2023-02-02T02:55:06.265Z,4.90
2023-02-02T02:55:50.075Z,4.90
2023-02-02T02:56:29.540Z,4.90
2023-02-02T02:57:20.734Z,4.90
2023-02-02T02:58:05.687Z,4.90
2023-02-02T02:58:45.951Z,4.90
2023-02-02T02:59:30.668Z,4.90
2023-02-02T03:00:19.300Z,4.90
2023-02-02T03:01:01.926Z,4.90
2023-02-02T03:01:42.664Z,4.90
2023-02-02T03:02:30.883Z,4.90
2023-02-02T03:03:09.117Z,4.90
2023-02-02T03:03:53.758Z,4.90
2023-02-02T03:04:33.563Z,4.80
2023-02-02T03:05:17.966Z,4.90
2023-02-02T03:05:57.049Z,4.90
2023-02-02T03:06:36.061Z,4.90
2023-02-02T03:07:13.336Z,4.90
2023-02-02T03:07:51.864Z,4.90
2023-02-02T03:08:28.877Z,4.90
2023-02-02T03:09:05.102Z,4.90
2023-02-02T03:09:43.298Z,4.90
2023-02-02T03:10:19.061Z,4.80
2023-02-02T03:10:53.143Z,4.80
2023-02-02T03:11:25.030Z,4.80
2023-02-02T03:11:57.543Z,4.80
2023-02-02T03:12:30.509Z,4.80
2023-02-02T03:13:07.677Z,4.90
2023-02-02T03:13:42.660Z,4.90
2023-02-02T03:14:14.597Z,4.90
2023-02-02T03:14:46.495Z,4.90
2023-02-02T03:15:19.283Z,4.90
2023-02-02T03:15:52.116Z,4.90
2023-02-02T03:16:24.050Z,4.90
2023-02-02T03:16:55.930Z,4.90
2023-02-02T03:17:30.290Z,4.90
2023-02-02T03:18:02.302Z,4.90
2023-02-02T03:18:34.845Z,4.90
2023-02-02T03:19:09.063Z,4.90
2023-02-02T03:19:40.943Z,4.90
2023-02-02T03:20:13.853Z,4.90
2023-02-02T03:20:47.395Z,4.90
2023-02-02T03:21:19.253Z,4.90
2023-02-02T03:21:51.136Z,4.70
2023-02-02T03:22:24.006Z,4.90
2023-02-02T03:22:55.846Z,4.90
2023-02-02T03:23:28.202Z,4.80
2023-02-02T03:24:01.384Z,4.80
2023-02-02T03:24:33.238Z,4.80
2023-02-02T03:25:05.975Z,4.80
2023-02-02T03:25:39.145Z,4.70
2023-02-02T03:26:11.057Z,4.70
2023-02-02T03:26:43.530Z,4.70
2023-02-02T03:27:16.455Z,4.70
2023-02-02T03:27:48.362Z,4.70
2023-02-02T03:28:22.995Z,4.70
2023-02-02T03:28:57.269Z,4.70
2023-02-02T03:29:29.725Z,4.70
2023-02-02T03:30:01.682Z,4.70
2023-02-02T03:30:35.308Z,4.70
2023-02-02T03:31:07.564Z,4.70
2023-02-02T03:31:39.581Z,4.70
2023-02-02T03:32:12.515Z,4.70
2023-02-02T03:32:46.511Z,4.70
2023-02-02T03:33:18.982Z,4.70
2023-02-02T03:33:51.764Z,4.70
2023-02-02T03:34:23.711Z,4.80
2023-02-02T03:34:55.609Z,4.80
2023-02-02T03:35:28.556Z,4.80
2023-02-02T03:36:00.479Z,4.80
2023-02-02T03:36:32.314Z,4.70
2023-02-02T03:37:05.134Z,4.80
2023-02-02T03:37:37.085Z,4.70
2023-02-02T03:38:09.022Z,4.70
2023-02-02T03:38:41.837Z,4.70
2023-02-02T03:39:13.660Z,4.70
2023-02-02T03:39:45.494Z,4.60
2023-02-02T03:40:18.676Z,4.60
2023-02-02T03:40:51.261Z,4.60
2023-02-02T03:41:23.663Z,4.60
2023-02-02T03:41:56.476Z,4.60
2023-02-02T03:42:28.353Z,4.60
2023-02-02T03:43:00.258Z,4.60
2023-02-02T03:43:33.096Z,4.60
2023-02-02T03:44:05.334Z,4.60
2023-02-02T03:44:37.273Z,4.60
2023-02-02T03:45:11.387Z,4.60
2023-02-02T03:45:43.244Z,4.60
2023-02-02T03:46:15.172Z,4.50
2023-02-02T03:46:48.083Z,4.50
2023-02-02T03:47:20.008Z,4.50
2023-02-02T03:47:53.194Z,4.50
2023-02-02T03:48:26.115Z,4.50
2023-02-02T03:48:57.961Z,4.60
2023-02-02T03:49:29.847Z,4.50
2023-02-02T03:50:02.788Z,4.50
2023-02-02T03:50:34.818Z,4.50
2023-02-02T03:51:07.785Z,4.40
2023-02-02T03:51:40.733Z,4.50
2023-02-02T03:52:12.605Z,4.50
2023-02-02T03:52:44.452Z,4.50
2023-02-02T03:53:17.297Z,4.50
2023-02-02T03:53:49.145Z,4.50
2023-02-02T03:54:20.954Z,4.50
2023-02-02T03:54:53.881Z,4.50
2023-02-02T03:55:26.173Z,4.50
2023-02-02T03:55:58.163Z,4.50
2023-02-02T03:56:30.971Z,4.50
2023-02-02T03:57:02.866Z,4.50
2023-02-02T03:57:34.685Z,4.50
2023-02-02T03:58:07.471Z,4.50
2023-02-02T03:58:39.405Z,4.60
2023-02-02T03:59:11.399Z,4.50
2023-02-02T03:59:43.288Z,4.50
2023-02-02T04:00:16.764Z,4.60
2023-02-02T04:00:48.721Z,4.50
2023-02-02T04:01:29.025Z,4.50
2023-02-02T04:02:00.940Z,4.60
2023-02-02T04:02:32.839Z,4.50
2023-02-02T04:03:06.127Z,4.60
2023-02-02T04:03:39.227Z,4.60
2023-02-02T04:04:11.077Z,4.60
2023-02-02T04:04:43.030Z,4.60
2023-02-02T04:05:15.043Z,4.60
2023-02-02T04:05:51.029Z,4.70
2023-02-02T04:06:23.062Z,4.60
2023-02-02T04:06:55.051Z,4.60
2023-02-02T04:07:27.945Z,4.60
2023-02-02T04:07:59.866Z,4.70
2023-02-02T04:08:33.919Z,4.70
2023-02-02T04:09:05.873Z,4.70
2023-02-02T04:09:37.717Z,4.70
2023-02-02T04:10:10.906Z,4.60
2023-02-02T04:10:43.770Z,4.70
2023-02-02T04:11:15.917Z,4.70
2023-02-02T04:11:47.801Z,4.70
2023-02-02T04:12:20.727Z,4.70
2023-02-02T04:12:52.591Z,4.70
2023-02-02T04:13:24.545Z,4.70
2023-02-02T04:13:57.392Z,4.70
2023-02-02T04:14:29.258Z,4.70
2023-02-02T04:15:01.104Z,4.70
2023-02-02T04:15:33.872Z,4.70
2023-02-02T04:16:06.421Z,4.70
2023-02-02T04:16:38.348Z,4.70
2023-02-02T04:17:11.442Z,4.80
2023-02-02T04:17:43.603Z,4.80
2023-02-02T04:18:16.726Z,4.70
2023-02-02T04:18:49.589Z,4.80
2023-02-02T04:19:21.510Z,4.70
2023-02-02T04:19:58.004Z,4.70
2023-02-02T04:20:30.834Z,4.80
2023-02-02T04:21:02.734Z,4.70
2023-02-02T04:21:34.584Z,4.80
2023-02-02T04:22:07.390Z,4.70
2023-02-02T04:22:39.281Z,4.70
2023-02-02T04:23:11.154Z,4.70
2023-02-02T04:23:44.071Z,4.80
2023-02-02T04:24:15.936Z,4.80
2023-02-02T04:24:47.819Z,4.80
2023-02-02T04:25:20.630Z,4.80
2023-02-02T04:25:52.818Z,4.80
2023-02-02T04:26:26.104Z,4.80
2023-02-02T04:26:58.936Z,4.80
2023-02-02T04:27:32.528Z,4.80
2023-02-02T04:28:04.842Z,4.80
2023-02-02T04:28:37.674Z,4.80
2023-02-02T04:29:09.520Z,4.80
2023-02-02T04:29:41.396Z,4.70
2023-02-02T04:30:14.368Z,4.70
2023-02-02T04:30:46.427Z,4.70
2023-02-02T04:31:18.383Z,4.70
2023-02-02T04:31:51.272Z,4.70
2023-02-02T04:32:23.130Z,4.70
2023-02-02T04:32:55.372Z,4.70
2023-02-02T04:33:28.757Z,4.80
2023-02-02T04:34:01.915Z,4.80
2023-02-02T04:34:33.749Z,4.80
2023-02-02T04:35:06.407Z,4.80
2023-02-02T04:35:39.341Z,4.80
2023-02-02T04:36:12.385Z,4.80
2023-02-02T04:36:44.994Z,4.80
2023-02-02T04:37:16.901Z,4.80
2023-02-02T04:37:48.794Z,4.80
2023-02-02T04:38:21.698Z,4.80
2023-02-02T04:38:55.139Z,4.80
2023-02-02T04:39:27.195Z,4.80
2023-02-02T04:40:00.179Z,4.80
2023-02-02T04:40:32.002Z,4.70
2023-02-02T04:41:08.648Z,4.80
2023-02-02T04:41:40.776Z,4.70
2023-02-02T04:42:12.665Z,4.70
2023-02-02T04:42:45.781Z,4.70
2023-02-02T04:43:17.748Z,4.70
2023-02-02T04:43:49.755Z,4.70
2023-02-02T04:44:21.601Z,4.60
2023-02-02T04:44:54.414Z,4.60
2023-02-02T04:45:26.723Z,4.60
2023-02-02T04:45:58.716Z,4.60
2023-02-02T04:46:32.095Z,4.60
2023-02-02T04:47:04.102Z,4.60
2023-02-02T04:47:35.973Z,4.60
2023-02-02T04:48:08.848Z,4.60
2023-02-02T04:48:42.749Z,4.60
2023-02-02T04:49:14.691Z,4.60
2023-02-02T04:49:47.467Z,4.60
2023-02-02T04:50:19.379Z,4.60
2023-02-02T04:50:51.330Z,4.60
2023-02-02T04:51:24.162Z,4.60
2023-02-02T04:51:56.138Z,4.70
2023-02-02T04:52:29.096Z,4.70
2023-02-02T04:53:01.927Z,4.70
2023-02-02T04:53:34.054Z,4.70
2023-02-02T04:54:06.438Z,4.70
2023-02-02T04:54:39.338Z,4.70
2023-02-02T04:55:11.172Z,4.70
2023-02-02T04:55:42.951Z,4.80
2023-02-02T04:56:17.768Z,4.80
2023-02-02T04:56:49.611Z,4.80
2023-02-02T04:57:21.478Z,4.80
2023-02-02T04:57:54.254Z,4.80
2023-02-02T04:58:26.069Z,4.80
2023-02-02T04:58:57.934Z,4.80
2023-02-02T04:59:31.033Z,4.80
2023-02-02T05:00:03.266Z,4.90
2023-02-02T05:00:35.144Z,4.90
2023-02-02T05:01:12.431Z,4.90
2023-02-02T05:01:44.397Z,4.90
2023-02-02T05:02:16.261Z,4.90
2023-02-02T05:02:49.107Z,4.90
2023-02-02T05:03:20.898Z,4.90
2023-02-02T05:03:54.538Z,5.00
2023-02-02T05:04:27.549Z,5.00
2023-02-02T05:04:59.440Z,5.00
2023-02-02T05:05:31.279Z,5.00
2023-02-02T05:06:05.233Z,5.00
2023-02-02T05:06:37.083Z,4.90
2023-02-02T05:07:08.986Z,5.00
2023-02-02T05:07:41.904Z,5.00
2023-02-02T05:08:13.737Z,5.00
2023-02-02T05:08:46.057Z,5.00
2023-02-02T05:09:18.884Z,5.00
2023-02-02T05:09:50.683Z,5.00
2023-02-02T05:10:23.557Z,5.00
2023-02-02T05:10:55.401Z,5.00
2023-02-02T05:11:27.347Z,5.00
2023-02-02T05:12:00.176Z,5.00
2023-02-02T05:12:32.057Z,5.00
2023-02-02T05:13:03.893Z,5.00
2023-02-02T05:13:36.765Z,5.00
2023-02-02T05:14:08.934Z,5.00
2023-02-02T05:14:40.793Z,5.00
2023-02-02T05:15:13.637Z,5.00
2023-02-02T05:15:45.710Z,5.00
2023-02-02T05:16:18.087Z,5.00
2023-02-02T05:16:51.341Z,5.00
2023-02-02T05:17:23.258Z,5.00
2023-02-02T05:17:55.113Z,5.00
2023-02-02T05:18:27.924Z,5.00
2023-02-02T05:19:01.078Z,5.00
2023-02-02T05:19:32.943Z,5.00
2023-02-02T05:20:05.315Z,5.00
2023-02-02T05:20:38.079Z,5.00
2023-02-02T05:21:09.987Z,5.00
2023-02-02T05:21:41.779Z,5.00
2023-02-02T05:22:14.594Z,5.00
2023-02-02T05:22:48.817Z,5.00
2023-02-02T05:23:20.912Z,5.00
2023-02-02T05:23:53.985Z,5.00
2023-02-02T05:24:27.513Z,5.00
2023-02-02T05:24:59.351Z,4.90
2023-02-02T05:25:32.139Z,4.90
2023-02-02T05:26:04.249Z,4.90
2023-02-02T05:26:36.114Z,5.00
2023-02-02T05:27:09.016Z,5.00
2023-02-02T05:27:43.098Z,5.00
2023-02-02T05:28:14.886Z,5.00
2023-02-02T05:28:48.362Z,5.00
2023-02-02T05:29:20.307Z,5.10
2023-02-02T05:29:53.229Z,5.00
2023-02-02T05:30:25.058Z,5.00
2023-02-02T05:30:57.553Z,5.00
2023-02-02T05:31:31.916Z,5.00
2023-02-02T05:32:04.173Z,5.00
2023-02-02T05:32:36.010Z,5.00
2023-02-02T05:33:08.761Z,5.00
2023-02-02T05:33:40.691Z,5.00
2023-02-02T05:34:13.942Z,5.00
2023-02-02T05:34:46.695Z,5.00
2023-02-02T05:35:18.513Z,5.00
2023-02-02T05:35:50.451Z,5.00
2023-02-02T05:36:23.309Z,5.00
2023-02-02T05:36:55.206Z,5.00
2023-02-02T05:37:27.009Z,4.90
2023-02-02T05:37:59.864Z,4.90
2023-02-02T05:38:31.914Z,4.90
2023-02-02T05:39:05.303Z,4.90
2023-02-02T05:39:38.125Z,5.00
2023-02-02T05:40:11.089Z,5.00
2023-02-02T05:40:43.036Z,4.90
2023-02-02T05:41:15.907Z,4.90
2023-02-02T05:41:47.680Z,4.90
2023-02-02T05:42:19.793Z,4.90
2023-02-02T05:42:52.603Z,4.90
2023-02-02T05:43:25.715Z,4.90
2023-02-02T05:43:59.379Z,4.90
2023-02-02T05:44:32.198Z,4.90
2023-02-02T05:45:05.231Z,4.90
2023-02-02T05:45:37.158Z,5.00
2023-02-02T05:46:10.064Z,5.00
2023-02-02T05:46:42.523Z,5.00
2023-02-02T05:47:14.398Z,4.90
2023-02-02T05:47:47.221Z,4.90
2023-02-02T05:48:19.077Z,4.90
2023-02-02T05:48:50.935Z,4.90
2023-02-02T05:49:25.137Z,4.90
2023-02-02T05:49:57.008Z,4.90
2023-02-02T05:50:28.856Z,4.90
2023-02-02T05:51:06.176Z,4.90
2023-02-02T05:51:43.501Z,4.90
2023-02-02T05:52:18.070Z,4.90
2023-02-02T05:52:51.335Z,4.90
2023-02-02T05:53:23.642Z,4.90
2023-02-02T05:53:55.608Z,4.90
2023-02-02T05:54:28.478Z,4.90
2023-02-02T05:55:00.369Z,4.90
2023-02-02T05:55:32.181Z,5.00
2023-02-02T05:56:05.453Z,4.90
2023-02-02T05:56:37.300Z,4.80
2023-02-02T05:57:09.198Z,4.90
2023-02-02T05:57:41.993Z,4.90
2023-02-02T05:58:13.843Z,4.80
2023-02-02T05:58:47.285Z,4.80
2023-02-02T05:59:20.558Z,4.80
2023-02-02T05:59:52.401Z,4.80
2023-02-02T06:00:24.370Z,4.80
2023-02-02T06:00:57.229Z,4.80
2023-02-02T06:01:29.076Z,4.80
2023-02-02T06:02:01.646Z,4.80
2023-02-02T06:02:34.438Z,4.80
2023-02-02T06:03:06.400Z,4.80
2023-02-02T06:03:38.433Z,4.80
2023-02-02T06:04:11.474Z,4.80
2023-02-02T06:04:44.711Z,4.80
2023-02-02T06:05:16.783Z,4.80
2023-02-02T06:05:49.614Z,4.90
2023-02-02T06:06:21.401Z,4.80
2023-02-02T06:06:53.267Z,4.80
2023-02-02T06:07:26.102Z,4.90
2023-02-02T06:07:57.933Z,4.90
2023-02-02T06:08:29.749Z,4.90
2023-02-02T06:09:03.130Z,4.90
2023-02-02T06:09:34.984Z,4.90
2023-02-02T06:10:07.316Z,4.90
2023-02-02T06:10:40.831Z,4.90
2023-02-02T06:11:14.140Z,4.90
2023-02-02T06:11:47.496Z,4.90
2023-02-02T06:12:19.402Z,5.00
2023-02-02T06:12:51.446Z,4.90
2023-02-02T06:13:24.335Z,5.00
2023-02-02T06:13:56.238Z,4.90
2023-02-02T06:14:28.279Z,5.00
2023-02-02T06:15:01.116Z,5.00
2023-02-02T06:15:33.102Z,5.00
2023-02-02T06:16:05.880Z,5.00
2023-02-02T06:16:38.794Z,5.00
2023-02-02T06:17:10.678Z,5.00
2023-02-02T06:17:42.515Z,5.00
2023-02-02T06:18:15.400Z,5.00
2023-02-02T06:18:48.522Z,5.00
2023-02-02T06:19:20.353Z,5.00
2023-02-02T06:19:54.467Z,5.00
2023-02-02T06:20:26.290Z,5.00
2023-02-02T06:20:58.190Z,5.00
2023-02-02T06:21:31.856Z,4.90
2023-02-02T06:22:03.775Z,4.90
2023-02-02T06:22:35.695Z,4.90
2023-02-02T06:23:08.497Z,4.90
2023-02-02T06:23:45.563Z,4.90
2023-02-02T06:24:18.388Z,4.90
2023-02-02T06:24:50.205Z,4.90
2023-02-02T06:25:22.285Z,4.90
2023-02-02T06:25:55.533Z,4.90
2023-02-02T06:26:27.578Z,4.90
2023-02-02T06:26:59.456Z,4.90
2023-02-02T06:27:32.497Z,4.90
2023-02-02T06:28:04.685Z,4.90
2023-02-02T06:28:36.504Z,4.90
2023-02-02T06:29:13.886Z,4.90
2023-02-02T06:29:45.775Z,4.90
2023-02-02T06:30:18.132Z,4.90
2023-02-02T06:30:51.259Z,4.90
2023-02-02T06:31:23.673Z,4.90
2023-02-02T06:31:55.885Z,5.00
2023-02-02T06:32:30.046Z,5.00
2023-02-02T06:33:02.342Z,5.00
2023-02-02T06:33:34.357Z,5.00
2023-02-02T06:34:08.248Z,5.00
2023-02-02T06:34:40.095Z,5.00
2023-02-02T06:35:13.469Z,5.00
2023-02-02T06:35:46.468Z,5.00
2023-02-02T06:36:18.389Z,5.00
2023-02-02T06:36:50.246Z,5.00
2023-02-02T06:37:23.046Z,5.00
2023-02-02T06:37:54.822Z,5.00
2023-02-02T06:38:26.693Z,5.00
2023-02-02T06:38:59.547Z,5.00
2023-02-02T06:39:31.364Z,5.00
2023-02-02T06:40:03.230Z,4.90
2023-02-02T06:40:36.035Z,5.00
2023-02-02T06:41:07.942Z,5.00
2023-02-02T06:41:40.454Z,5.00
2023-02-02T06:42:21.266Z,5.00
2023-02-02T06:42:56.492Z,5.00
2023-02-02T06:43:29.089Z,5.00
2023-02-02T06:44:02.383Z,5.00
2023-02-02T06:44:34.195Z,5.00
2023-02-02T06:45:07.608Z,5.00
2023-02-02T06:45:40.545Z,5.00
2023-02-02T06:46:12.870Z,5.00
2023-02-02T06:46:45.995Z,5.00
2023-02-02T06:47:17.831Z,5.10
2023-02-02T06:47:50.570Z,5.00
2023-02-02T06:48:22.389Z,5.00
2023-02-02T06:48:54.267Z,5.00
2023-02-02T06:49:27.009Z,5.00
2023-02-02T06:49:58.806Z,5.00
2023-02-02T06:50:32.024Z,5.00
2023-02-02T06:51:05.956Z,5.00
2023-02-02T06:51:37.854Z,5.00
2023-02-02T06:52:09.720Z,5.00
2023-02-02T06:52:48.696Z,5.00
2023-02-02T06:53:23.036Z,5.10
2023-02-02T06:53:58.376Z,5.10
2023-02-02T06:54:31.281Z,5.10
2023-02-02T06:55:03.124Z,5.10
2023-02-02T06:55:36.012Z,5.10
2023-02-02T06:56:10.345Z,5.10
2023-02-02T06:56:42.177Z,5.10
2023-02-02T06:57:14.903Z,5.10
2023-02-02T06:57:47.240Z,5.10
2023-02-02T06:58:19.079Z,5.10
2023-02-02T06:58:51.942Z,5.10
2023-02-02T06:59:23.885Z,5.10
2023-02-02T06:59:55.700Z,5.10
2023-02-02T07:00:29.600Z,5.10
2023-02-02T07:01:04.190Z,5.10
2023-02-02T07:01:36.994Z,5.00
2023-02-02T07:02:11.212Z,5.00
2023-02-02T07:02:45.767Z,5.10
2023-02-02T07:03:18.916Z,5.10
2023-02-02T07:03:51.546Z,5.10
2023-02-02T07:04:23.448Z,5.10
2023-02-02T07:04:56.238Z,5.10
2023-02-02T07:05:30.522Z,5.10
2023-02-02T07:06:13.034Z,5.10
2023-02-02T07:06:46.038Z,5.00
2023-02-02T07:07:17.816Z,5.10
2023-02-02T07:07:50.295Z,5.00
2023-02-02T07:08:23.136Z,5.10
2023-02-02T07:09:01.603Z,5.00
2023-02-02T07:09:35.070Z,5.10
2023-02-02T07:10:08.754Z,5.10
2023-02-02T07:11:12.943Z,5.10
2023-02-02T07:11:48.781Z,5.10
2023-02-02T07:12:20.558Z,5.10
2023-02-02T07:12:54.227Z,5.10
2023-02-02T07:13:27.075Z,5.10
2023-02-02T07:14:01.742Z,5.10
2023-02-02T07:14:33.628Z,5.10
2023-02-02T07:15:07.305Z,5.10
2023-02-02T07:15:39.774Z,5.10
2023-02-02T07:16:13.790Z,5.10
2023-02-02T07:16:45.715Z,5.10
2023-02-02T07:17:17.636Z,5.10
2023-02-02T07:17:50.470Z,5.10
2023-02-02T07:18:22.779Z,5.10
2023-02-02T07:18:56.912Z,5.10
2023-02-02T07:19:31.789Z,5.10
2023-02-02T07:20:04.081Z,5.10
2023-02-02T07:20:36.853Z,5.10
2023-02-02T07:21:08.799Z,5.10
2023-02-02T07:21:41.938Z,5.20
2023-02-02T07:22:15.967Z,5.10
2023-02-02T07:22:48.462Z,5.10
2023-02-02T07:23:21.251Z,5.10
2023-02-02T07:23:53.142Z,5.10
2023-02-02T07:24:25.058Z,5.10
2023-02-02T07:24:57.787Z,5.10
2023-02-02T07:25:29.645Z,5.10
2023-02-02T07:26:03.636Z,5.10
2023-02-02T07:26:37.361Z,5.10
2023-02-02T07:27:09.340Z,5.10
2023-02-02T07:27:41.235Z,5.10
2023-02-02T07:28:14.085Z,5.10
2023-02-02T07:28:46.518Z,5.20
2023-02-02T07:29:18.379Z,5.10
2023-02-02T07:29:51.267Z,5.10
2023-02-02T07:30:23.210Z,5.10
2023-02-02T07:30:55.454Z,5.10
2023-02-02T07:31:29.075Z,5.20
2023-02-02T07:32:01.074Z,5.20
2023-02-02T07:32:32.997Z,5.20
2023-02-02T07:33:05.933Z,5.20
2023-02-02T07:33:40.100Z,5.20